createdAt,value
2022-08-30T00:01:07.847Z,28.05
2022-08-30T00:02:22.099Z,27.82
2022-08-30T00:03:36.046Z,28.08
2022-08-30T00:04:47.110Z,28.14
2022-08-30T00:05:56.302Z,28.31
2022-08-30T00:07:05.330Z,28.08
2022-08-30T00:08:13.366Z,27.99
2022-08-30T00:09:20.802Z,27.92
2022-08-30T00:10:28.243Z,28.06
2022-08-30T00:11:36.652Z,27.96
2022-08-30T00:12:45.442Z,28.32
2022-08-30T00:13:55.376Z,28.35
2022-08-30T00:15:03.702Z,28.23
2022-08-30T00:16:12.118Z,28.10
2022-08-30T00:17:20.786Z,28.27
2022-08-30T00:18:28.654Z,28.53
2022-08-30T00:19:36.662Z,28.73
2022-08-30T00:20:43.722Z,28.84
2022-08-30T00:21:50.902Z,28.68
2022-08-30T00:22:58.030Z,28.66
2022-08-30T00:24:06.173Z,28.90
2022-08-30T00:25:13.763Z,28.89
2022-08-30T00:26:20.973Z,29.04
2022-08-30T00:27:28.508Z,29.25
2022-08-30T00:28:36.291Z,29.05
2022-08-30T00:29:43.449Z,29.09
2022-08-30T00:30:50.719Z,29.18
2022-08-30T00:31:58.079Z,29.21
2022-08-30T00:33:05.042Z,29.34
2022-08-30T00:34:12.534Z,29.22
2022-08-30T00:35:21.978Z,29.35
2022-08-30T00:36:30.147Z,29.32
2022-08-30T00:37:39.559Z,29.01
2022-08-30T00:38:48.368Z,29.15
2022-08-30T00:39:57.474Z,29.15
2022-08-30T00:41:05.337Z,28.90
2022-08-30T00:42:14.106Z,28.92
2022-08-30T00:43:27.833Z,29.28
2022-08-30T00:44:35.600Z,29.31
2022-08-30T00:45:43.344Z,29.62
2022-08-30T00:46:51.851Z,29.76
2022-08-30T00:47:59.953Z,29.97
2022-08-30T00:49:09.451Z,29.87
2022-08-30T00:50:17.655Z,29.83
2022-08-30T00:51:25.723Z,29.94
2022-08-30T00:52:33.435Z,29.95
2022-08-30T00:53:43.283Z,30.21
2022-08-30T00:54:50.602Z,30.24
2022-08-30T00:55:57.874Z,30.23
2022-08-30T00:57:05.275Z,30.51
2022-08-30T00:58:14.931Z,30.94
2022-08-30T00:59:23.312Z,31.18
2022-08-30T01:00:30.338Z,31.48
2022-08-30T01:01:38.725Z,31.61
2022-08-30T01:02:45.810Z,31.55
2022-08-30T01:03:55.989Z,31.76
2022-08-30T01:05:04.267Z,31.85
2022-08-30T01:06:11.378Z,31.87
2022-08-30T01:07:18.508Z,31.83
2022-08-30T01:08:25.727Z,31.98
2022-08-30T01:09:33.027Z,31.88
2022-08-30T01:10:40.038Z,32.07
2022-08-30T01:11:47.179Z,32.06
2022-08-30T01:12:54.335Z,32.18
2022-08-30T01:14:01.517Z,32.17
2022-08-30T01:15:09.147Z,32.29
2022-08-30T01:16:16.844Z,32.36
2022-08-30T01:17:23.940Z,32.38
2022-08-30T01:18:31.267Z,32.20
2022-08-30T01:19:43.138Z,32.09
2022-08-30T01:21:08.679Z,32.27
2022-08-30T01:22:44.585Z,32.12
2022-08-30T01:23:55.459Z,32.37
2022-08-30T01:25:02.740Z,32.39
2022-08-30T01:26:10.062Z,32.48
2022-08-30T01:27:20.267Z,32.43
2022-08-30T01:28:27.979Z,32.59
2022-08-30T01:29:35.418Z,32.61
2022-08-30T01:30:44.327Z,32.81
2022-08-30T01:31:51.752Z,32.79
2022-08-30T01:33:05.212Z,33.02
2022-08-30T01:34:12.229Z,33.21
2022-08-30T01:35:20.122Z,33.17
2022-08-30T01:36:27.395Z,33.33
2022-08-30T01:37:34.830Z,33.51
2022-08-30T01:39:00.063Z,33.71
2022-08-30T01:40:08.936Z,33.99
2022-08-30T01:41:21.252Z,34.06
2022-08-30T01:42:30.210Z,33.90
2022-08-30T01:43:38.360Z,34.41
2022-08-30T01:44:46.081Z,34.72
2022-08-30T01:45:53.148Z,34.95
2022-08-30T01:47:00.563Z,35.22
2022-08-30T01:48:07.605Z,35.63
2022-08-30T01:49:16.490Z,35.53
2022-08-30T01:50:23.745Z,35.55
2022-08-30T01:51:32.496Z,35.42
2022-08-30T01:52:40.805Z,35.30
2022-08-30T01:53:49.282Z,35.51
2022-08-30T01:54:56.797Z,35.73
2022-08-30T01:56:04.778Z,36.19
2022-08-30T01:57:13.405Z,36.07
2022-08-30T01:58:20.178Z,36.19
2022-08-30T01:59:27.446Z,36.37
2022-08-30T02:00:34.645Z,36.80
2022-08-30T02:01:44.585Z,36.97
2022-08-30T02:02:53.704Z,37.27
2022-08-30T02:04:01.830Z,37.37
2022-08-30T02:05:09.948Z,37.88
2022-08-30T02:06:21.120Z,37.89
2022-08-30T02:07:31.451Z,38.28
2022-08-30T02:08:42.128Z,38.49
2022-08-30T02:09:51.917Z,38.54
2022-08-30T02:11:01.441Z,38.64
2022-08-30T02:12:09.814Z,39.08
2022-08-30T02:13:17.669Z,39.28
2022-08-30T02:14:24.713Z,39.47
2022-08-30T02:15:33.013Z,39.61
2022-08-30T02:16:49.881Z,39.74
2022-08-30T02:17:57.442Z,40.12
2022-08-30T02:19:08.804Z,40.16
2022-08-30T02:20:15.854Z,40.31
2022-08-30T02:21:22.961Z,40.46
2022-08-30T02:22:29.981Z,40.63
2022-08-30T02:23:37.865Z,40.66
2022-08-30T02:24:44.734Z,40.89
2022-08-30T02:25:52.093Z,41.39
2022-08-30T02:26:59.504Z,41.46
2022-08-30T02:28:06.964Z,41.69
2022-08-30T02:29:16.084Z,41.96
2022-08-30T02:30:23.258Z,41.98
2022-08-30T02:31:30.883Z,41.89
2022-08-30T02:32:37.804Z,42.09
2022-08-30T02:33:45.136Z,42.28
2022-08-30T02:34:52.795Z,42.37
2022-08-30T02:36:00.588Z,42.43
2022-08-30T02:37:08.027Z,42.27
2022-08-30T02:38:15.578Z,42.53
2022-08-30T02:39:27.996Z,42.55
2022-08-30T02:40:36.766Z,42.73
2022-08-30T02:41:48.153Z,42.73
2022-08-30T02:42:57.580Z,43.05
2022-08-30T02:44:07.050Z,43.23
2022-08-30T02:45:14.810Z,43.19
2022-08-30T02:46:22.423Z,43.17
2022-08-30T02:47:29.932Z,43.25
2022-08-30T02:48:37.772Z,43.16
2022-08-30T02:49:45.063Z,43.31
2022-08-30T02:50:53.351Z,43.41
2022-08-30T02:52:00.735Z,43.34
2022-08-30T02:53:08.217Z,43.51
2022-08-30T02:54:21.457Z,43.78
2022-08-30T02:55:29.309Z,43.87
2022-08-30T02:56:38.101Z,43.82
2022-08-30T02:57:46.646Z,43.99
2022-08-30T02:58:55.725Z,44.10
2022-08-30T03:00:03.907Z,44.29
2022-08-30T03:01:13.734Z,44.44
2022-08-30T03:02:21.295Z,44.33
2022-08-30T03:03:29.052Z,44.49
2022-08-30T03:04:37.708Z,44.63
2022-08-30T03:05:46.442Z,44.74
2022-08-30T03:06:55.728Z,44.74
2022-08-30T03:08:03.900Z,44.70
2022-08-30T03:09:11.215Z,44.72
2022-08-30T03:10:18.579Z,44.89
2022-08-30T03:11:25.885Z,45.07
2022-08-30T03:12:37.119Z,45.40
2022-08-30T03:13:45.917Z,45.19
2022-08-30T03:14:54.836Z,45.19
2022-08-30T03:16:02.724Z,45.43
2022-08-30T03:17:15.798Z,45.52
2022-08-30T03:18:23.768Z,45.60
2022-08-30T03:19:37.373Z,45.59
2022-08-30T03:20:54.194Z,45.59
2022-08-30T03:22:04.509Z,45.83
2022-08-30T03:23:12.459Z,46.08
2022-08-30T03:24:29.182Z,46.01
2022-08-30T03:25:38.391Z,46.05
2022-08-30T03:26:47.523Z,45.95
2022-08-30T03:27:55.977Z,46.37
2022-08-30T03:29:04.679Z,46.64
2022-08-30T03:30:13.756Z,46.56
2022-08-30T03:31:21.195Z,46.57
2022-08-30T03:32:29.790Z,46.69
2022-08-30T03:33:38.400Z,46.66
2022-08-30T03:34:47.016Z,46.74
2022-08-30T03:35:56.587Z,46.85
2022-08-30T03:37:04.665Z,47.00
2022-08-30T03:38:12.723Z,46.99
2022-08-30T03:39:20.018Z,47.32
2022-08-30T03:40:27.496Z,47.41
2022-08-30T03:41:35.349Z,47.39
2022-08-30T03:42:43.755Z,47.43
2022-08-30T03:43:52.625Z,47.39
2022-08-30T03:45:09.765Z,47.60
2022-08-30T03:46:17.363Z,47.40
2022-08-30T03:47:30.762Z,47.48
2022-08-30T03:48:37.889Z,47.82
2022-08-30T03:49:45.162Z,47.73
2022-08-30T03:50:52.371Z,47.67
2022-08-30T03:51:59.533Z,47.74
2022-08-30T03:53:06.611Z,47.94
2022-08-30T03:54:13.803Z,48.04
2022-08-30T03:55:20.844Z,47.94
2022-08-30T03:56:28.153Z,48.10
2022-08-30T03:57:36.570Z,48.31
2022-08-30T03:58:43.951Z,48.31
2022-08-30T03:59:51.193Z,48.37
2022-08-30T04:00:58.688Z,48.18
2022-08-30T04:02:06.575Z,48.41
2022-08-30T04:03:13.623Z,48.32
2022-08-30T04:04:21.183Z,48.39
2022-08-30T04:05:28.710Z,48.44
2022-08-30T04:06:36.693Z,48.47
2022-08-30T04:07:44.051Z,48.34
2022-08-30T04:08:52.789Z,48.50
2022-08-30T04:10:00.943Z,48.65
2022-08-30T04:11:08.675Z,48.91
2022-08-30T04:12:18.388Z,49.01
2022-08-30T04:13:31.302Z,48.95
2022-08-30T04:14:39.781Z,49.04
2022-08-30T04:15:48.190Z,49.07
2022-08-30T04:16:57.064Z,49.16
2022-08-30T04:18:04.995Z,49.16
2022-08-30T04:19:12.753Z,49.14
2022-08-30T04:20:19.964Z,49.31
2022-08-30T04:21:28.133Z,49.17
2022-08-30T04:22:37.003Z,49.38
2022-08-30T04:23:46.156Z,49.46
2022-08-30T04:24:54.502Z,49.53
2022-08-30T04:26:03.003Z,49.66
2022-08-30T04:27:11.156Z,49.56
2022-08-30T04:28:18.484Z,49.62
2022-08-30T04:29:26.853Z,49.75
2022-08-30T04:30:35.201Z,49.82
2022-08-30T04:31:43.795Z,49.87
2022-08-30T04:32:55.529Z,50.03
2022-08-30T04:34:06.261Z,50.07
2022-08-30T04:35:14.322Z,50.13
2022-08-30T04:36:21.635Z,50.19
2022-08-30T04:37:29.019Z,50.17
2022-08-30T04:38:36.874Z,50.23
2022-08-30T04:39:44.661Z,50.29
2022-08-30T04:40:53.948Z,50.51
2022-08-30T04:42:01.291Z,50.64
2022-08-30T04:43:08.142Z,50.67
2022-08-30T04:44:19.500Z,50.71
2022-08-30T04:45:28.039Z,50.85
2022-08-30T04:46:37.697Z,50.91
2022-08-30T04:47:54.096Z,51.15
2022-08-30T04:49:06.176Z,51.10
2022-08-30T04:50:15.867Z,50.88
2022-08-30T04:51:23.690Z,51.33
2022-08-30T04:52:31.872Z,51.24
2022-08-30T04:53:40.729Z,51.32
2022-08-30T04:54:49.380Z,51.55
2022-08-30T04:55:58.909Z,51.62
2022-08-30T04:57:08.419Z,51.66
2022-08-30T04:58:16.930Z,51.75
2022-08-30T04:59:25.385Z,51.86
2022-08-30T05:00:34.172Z,51.73
2022-08-30T05:01:45.551Z,51.81
2022-08-30T05:02:54.422Z,51.71
2022-08-30T05:04:02.010Z,51.71
2022-08-30T05:05:29.355Z,51.92
2022-08-30T05:06:41.376Z,52.18
2022-08-30T05:07:49.934Z,52.17
2022-08-30T05:08:58.614Z,52.35
2022-08-30T05:10:10.964Z,52.55
2022-08-30T05:11:20.263Z,52.47
2022-08-30T05:12:27.853Z,52.65
2022-08-30T05:13:36.948Z,52.47
2022-08-30T05:14:44.798Z,52.71
2022-08-30T05:15:54.790Z,52.96
2022-08-30T05:17:03.637Z,52.82
2022-08-30T05:18:14.129Z,52.78
2022-08-30T05:19:21.985Z,53.03
2022-08-30T05:20:30.162Z,53.20
2022-08-30T05:21:38.801Z,53.08
2022-08-30T05:22:54.115Z,53.29
2022-08-30T05:24:05.941Z,53.23
2022-08-30T05:25:14.662Z,53.42
2022-08-30T05:26:26.123Z,53.54
2022-08-30T05:27:37.719Z,53.70
2022-08-30T05:28:48.985Z,53.90
2022-08-30T05:29:58.319Z,53.97
2022-08-30T05:31:10.627Z,54.11
2022-08-30T05:32:21.400Z,54.11
2022-08-30T05:33:31.253Z,53.98
2022-08-30T05:34:46.151Z,54.02
2022-08-30T05:35:53.801Z,54.08
2022-08-30T05:37:01.242Z,54.33
2022-08-30T05:38:09.068Z,54.40
2022-08-30T05:39:17.492Z,54.53
2022-08-30T05:40:29.232Z,54.73
2022-08-30T05:41:36.952Z,54.89
2022-08-30T05:42:44.391Z,54.91
2022-08-30T05:43:53.562Z,54.74
2022-08-30T05:45:00.968Z,54.91
2022-08-30T05:46:09.693Z,55.21
2022-08-30T05:47:16.817Z,55.14
2022-08-30T05:48:23.811Z,55.09
2022-08-30T05:49:30.928Z,55.15
2022-08-30T05:50:39.877Z,55.41
2022-08-30T05:51:47.367Z,55.51
2022-08-30T05:52:55.668Z,55.37
2022-08-30T05:54:04.170Z,55.39
2022-08-30T05:55:12.696Z,55.46
2022-08-30T05:56:24.785Z,55.55
2022-08-30T05:57:36.981Z,55.81
2022-08-30T05:58:44.997Z,55.89
2022-08-30T05:59:53.476Z,56.05
2022-08-30T06:01:01.822Z,55.98
2022-08-30T06:02:10.091Z,56.09
2022-08-30T06:03:20.818Z,56.04
2022-08-30T06:04:28.566Z,56.05
2022-08-30T06:05:37.888Z,56.30
2022-08-30T06:06:46.949Z,56.19
2022-08-30T06:07:56.029Z,56.35
2022-08-30T06:09:05.388Z,56.36
2022-08-30T06:10:15.209Z,56.71
2022-08-30T06:11:25.333Z,56.65
2022-08-30T06:12:34.438Z,56.83
2022-08-30T06:13:43.953Z,56.72
2022-08-30T06:14:53.733Z,56.73
2022-08-30T06:16:02.489Z,56.98
2022-08-30T06:17:09.903Z,57.11
2022-08-30T06:18:17.957Z,57.19
2022-08-30T06:19:29.509Z,57.28
2022-08-30T06:20:43.530Z,57.12
2022-08-30T06:21:52.189Z,56.97
2022-08-30T06:23:03.217Z,57.04
2022-08-30T06:24:12.639Z,57.20
2022-08-30T06:25:20.317Z,57.26
2022-08-30T06:26:28.698Z,57.43
2022-08-30T06:27:35.988Z,57.49
2022-08-30T06:28:43.336Z,57.52
2022-08-30T06:29:53.556Z,57.70
2022-08-30T06:31:00.801Z,57.89
2022-08-30T06:32:08.230Z,58.07
2022-08-30T06:33:15.345Z,58.22
2022-08-30T06:34:23.188Z,58.13
2022-08-30T06:35:32.727Z,58.25
2022-08-30T06:36:43.008Z,58.37
2022-08-30T06:37:50.090Z,58.33
2022-08-30T06:38:58.696Z,58.38
2022-08-30T06:40:06.336Z,58.32
2022-08-30T06:41:17.638Z,58.33
2022-08-30T06:42:25.169Z,58.59
2022-08-30T06:43:33.136Z,58.59
2022-08-30T06:44:41.018Z,58.62
2022-08-30T06:45:53.607Z,58.37
2022-08-30T06:47:00.882Z,58.40
2022-08-30T06:48:08.050Z,58.19
2022-08-30T06:49:15.037Z,58.17
2022-08-30T06:50:22.715Z,58.57
2022-08-30T06:51:32.698Z,58.67
2022-08-30T06:52:45.247Z,58.67
2022-08-30T06:53:55.039Z,58.63
2022-08-30T06:55:03.427Z,58.55
2022-08-30T06:56:16.475Z,58.44
2022-08-30T06:57:24.223Z,59.13
2022-08-30T06:58:33.069Z,59.66
2022-08-30T06:59:41.525Z,60.05
2022-08-30T07:00:50.317Z,59.94
2022-08-30T07:01:59.517Z,60.01
2022-08-30T07:03:07.989Z,60.07
2022-08-30T07:04:15.225Z,60.28
2022-08-30T07:05:25.144Z,59.91
2022-08-30T07:06:32.333Z,59.70
2022-08-30T07:07:39.865Z,59.82
2022-08-30T07:08:47.006Z,59.89
2022-08-30T07:09:55.105Z,59.99
2022-08-30T07:11:02.267Z,59.92
2022-08-30T07:12:10.225Z,59.72
2022-08-30T07:13:17.622Z,59.60
2022-08-30T07:14:24.815Z,59.45
2022-08-30T07:15:31.992Z,59.54
2022-08-30T07:16:51.237Z,59.87
2022-08-30T07:18:17.717Z,59.91
2022-08-30T07:19:25.504Z,60.02
2022-08-30T07:20:39.894Z,59.96
2022-08-30T07:21:47.853Z,59.81
2022-08-30T07:22:56.936Z,60.00
2022-08-30T07:24:04.242Z,60.06
2022-08-30T07:25:17.667Z,60.07
2022-08-30T07:26:35.920Z,59.96
2022-08-30T07:27:43.396Z,59.80
2022-08-30T07:28:52.329Z,59.85
2022-08-30T07:30:04.753Z,59.94
2022-08-30T07:31:14.266Z,59.97
2022-08-30T07:32:21.574Z,60.23
2022-08-30T07:33:28.824Z,60.28
2022-08-30T07:34:36.081Z,60.47
2022-08-30T07:35:43.345Z,60.76
2022-08-30T07:36:50.857Z,61.13
2022-08-30T07:37:58.196Z,61.47
2022-08-30T07:39:06.040Z,61.48
2022-08-30T07:40:15.257Z,61.50
2022-08-30T07:41:27.431Z,61.48
2022-08-30T07:42:34.774Z,61.44
2022-08-30T07:43:42.542Z,61.33
2022-08-30T07:44:51.114Z,61.30
2022-08-30T07:46:08.790Z,61.34
2022-08-30T07:47:17.501Z,61.19
2022-08-30T07:48:24.647Z,61.06
2022-08-30T07:49:31.575Z,60.95
2022-08-30T07:50:38.626Z,60.97
2022-08-30T07:51:45.624Z,60.88
2022-08-30T07:52:52.706Z,60.88
2022-08-30T07:53:59.953Z,60.84
2022-08-30T07:55:07.712Z,60.97
2022-08-30T07:56:14.873Z,61.20
2022-08-30T07:57:21.958Z,61.30
2022-08-30T07:58:28.833Z,61.21
2022-08-30T07:59:36.558Z,61.18
2022-08-30T08:00:44.125Z,61.62
2022-08-30T08:01:51.588Z,61.96
2022-08-30T08:03:00.509Z,62.05
2022-08-30T08:04:08.395Z,62.33
2022-08-30T08:05:17.738Z,62.33
2022-08-30T08:06:26.424Z,62.23
2022-08-30T08:07:33.986Z,62.29
2022-08-30T08:08:41.510Z,61.95
2022-08-30T08:09:48.965Z,61.94
2022-08-30T08:10:56.325Z,62.07
2022-08-30T08:12:03.425Z,61.91
2022-08-30T08:13:10.625Z,61.82
2022-08-30T08:14:17.939Z,61.84
2022-08-30T08:15:25.606Z,61.73
2022-08-30T08:16:34.089Z,61.86
2022-08-30T08:17:41.446Z,62.01
2022-08-30T08:18:48.225Z,61.90
2022-08-30T08:19:55.785Z,61.96
2022-08-30T08:21:02.906Z,62.06
2022-08-30T08:22:20.507Z,62.01
2022-08-30T08:23:28.713Z,62.14
2022-08-30T08:24:35.974Z,62.05
2022-08-30T08:25:43.806Z,62.36
2022-08-30T08:26:52.655Z,62.59
2022-08-30T08:28:00.533Z,62.61
2022-08-30T08:29:09.294Z,62.66
2022-08-30T08:30:17.605Z,62.59
2022-08-30T08:31:33.046Z,62.53
2022-08-30T08:32:42.468Z,62.76
2022-08-30T08:33:50.985Z,62.49
2022-08-30T08:34:59.407Z,62.42
2022-08-30T08:36:09.352Z,62.32
2022-08-30T08:37:20.793Z,62.25
2022-08-30T08:38:28.366Z,62.49
2022-08-30T08:39:37.165Z,62.48
2022-08-30T08:41:07.718Z,62.43
2022-08-30T08:42:34.136Z,62.52
2022-08-30T08:43:42.188Z,62.61
2022-08-30T08:44:54.649Z,62.92
2022-08-30T08:46:14.308Z,63.02
2022-08-30T08:47:32.357Z,63.08
2022-08-30T08:49:00.090Z,63.36
2022-08-30T08:50:13.301Z,63.32
2022-08-30T08:51:45.345Z,63.43
2022-08-30T08:53:45.224Z,63.35
2022-08-30T08:55:02.267Z,63.38
2022-08-30T08:56:17.312Z,63.46
2022-08-30T08:57:24.867Z,63.42
2022-08-30T08:58:42.125Z,63.39
2022-08-30T08:59:50.007Z,63.25
2022-08-30T09:01:01.111Z,63.28
2022-08-30T09:02:25.368Z,63.29
2022-08-30T09:03:32.786Z,63.59
2022-08-30T09:04:40.734Z,64.10
2022-08-30T09:05:49.794Z,64.14
2022-08-30T09:06:59.817Z,64.11
2022-08-30T09:08:10.612Z,64.21
2022-08-30T09:09:20.337Z,64.15
2022-08-30T09:10:47.121Z,64.08
2022-08-30T09:11:55.275Z,64.23
2022-08-30T09:13:03.007Z,64.37
2022-08-30T09:14:16.797Z,64.21
2022-08-30T09:15:26.391Z,64.05
2022-08-30T09:16:51.586Z,64.24
2022-08-30T09:18:03.536Z,64.27
2022-08-30T09:19:11.124Z,64.18
2022-08-30T09:20:26.726Z,64.22
2022-08-30T09:21:33.884Z,64.39
2022-08-30T09:22:43.807Z,64.50
2022-08-30T09:24:06.055Z,64.57
2022-08-30T09:25:16.528Z,64.69
2022-08-30T09:26:43.667Z,64.67
2022-08-30T09:27:53.556Z,64.63
2022-08-30T09:29:02.258Z,64.54
2022-08-30T09:30:19.895Z,64.43
2022-08-30T09:31:31.729Z,64.38
2022-08-30T09:32:43.646Z,64.34
2022-08-30T09:34:10.470Z,64.26
2022-08-30T09:35:21.779Z,64.25
2022-08-30T09:36:29.816Z,64.10
2022-08-30T09:38:10.432Z,64.06
2022-08-30T09:39:28.260Z,64.08
2022-08-30T09:40:51.066Z,64.24
2022-08-30T09:42:12.831Z,64.52
2022-08-30T09:43:19.987Z,64.88
2022-08-30T09:44:32.036Z,65.16
2022-08-30T09:45:41.299Z,65.19
2022-08-30T09:46:54.286Z,65.10
2022-08-30T09:48:03.277Z,65.11
2022-08-30T09:49:31.553Z,64.98
2022-08-30T09:50:39.077Z,65.01
2022-08-30T09:51:54.616Z,65.00
2022-08-30T09:53:11.305Z,65.03
2022-08-30T09:54:31.136Z,65.04
2022-08-30T09:55:58.157Z,64.90
2022-08-30T09:57:39.699Z,64.82
2022-08-30T09:59:18.366Z,65.29
2022-08-30T10:00:32.637Z,65.90
2022-08-30T10:01:42.132Z,66.34
2022-08-30T10:03:30.049Z,66.42
2022-08-30T10:04:59.358Z,66.38
2022-08-30T10:06:09.045Z,66.43
2022-08-30T10:07:21.173Z,66.27
2022-08-30T10:08:54.043Z,66.17
2022-08-30T10:10:19.575Z,66.31
2022-08-30T10:12:06.287Z,66.51
2022-08-30T10:13:33.771Z,66.38
2022-08-30T10:14:50.905Z,66.31
2022-08-30T10:16:20.696Z,66.40
2022-08-30T10:17:50.206Z,66.56
2022-08-30T10:19:10.336Z,66.93
2022-08-30T10:20:31.158Z,67.57
2022-08-30T10:21:44.111Z,67.77
2022-08-30T10:23:11.793Z,67.99
2022-08-30T10:24:21.878Z,67.97
2022-08-30T10:25:32.239Z,67.88
2022-08-30T10:27:05.297Z,67.86
2022-08-30T10:28:16.080Z,67.68
2022-08-30T10:29:46.521Z,67.44
2022-08-30T10:31:03.831Z,67.05
2022-08-30T10:32:20.524Z,67.20
2022-08-30T10:33:31.783Z,67.09
2022-08-30T10:34:43.742Z,66.89
2022-08-30T10:35:54.211Z,66.94
2022-08-30T10:37:06.694Z,67.21
2022-08-30T10:38:27.391Z,67.60
2022-08-30T10:39:39.500Z,67.90
2022-08-30T10:41:08.361Z,68.08
2022-08-30T10:42:28.291Z,67.99
2022-08-30T10:43:56.653Z,68.01
2022-08-30T10:45:14.083Z,68.16
2022-08-30T10:46:39.847Z,68.04
2022-08-30T10:48:07.641Z,68.09
2022-08-30T10:49:27.460Z,68.08
2022-08-30T10:50:41.285Z,67.77
2022-08-30T10:52:10.020Z,67.69
2022-08-30T10:53:23.679Z,68.16
2022-08-30T10:54:37.077Z,68.35
2022-08-30T10:56:03.990Z,68.33
2022-08-30T10:57:11.430Z,68.10
2022-08-30T10:58:19.121Z,67.93
2022-08-30T10:59:26.160Z,68.05
2022-08-30T11:01:08.852Z,68.05
2022-08-30T11:02:34.520Z,67.77
2022-08-30T11:04:04.621Z,67.65
2022-08-30T11:05:48.461Z,67.83
2022-08-30T11:07:09.277Z,68.04
2022-08-30T11:08:39.129Z,68.10
2022-08-30T11:10:08.966Z,68.40
2022-08-30T11:11:53.851Z,68.34
2022-08-30T11:13:06.234Z,68.54
2022-08-30T11:14:15.866Z,68.69
2022-08-30T11:15:25.540Z,68.68
2022-08-30T11:16:43.722Z,68.71
2022-08-30T11:18:11.730Z,68.77
2022-08-30T11:19:39.740Z,68.91
2022-08-30T11:20:52.660Z,69.23
2022-08-30T11:22:18.328Z,69.22
2022-08-30T11:23:36.242Z,69.55
2022-08-30T11:25:09.707Z,69.95
2022-08-30T11:26:20.402Z,70.00
2022-08-30T11:27:48.329Z,69.96
2022-08-30T11:29:02.408Z,70.13
2022-08-30T11:30:28.165Z,70.18
2022-08-30T11:31:40.730Z,70.07
2022-08-30T11:33:09.883Z,69.76
2022-08-30T11:34:17.031Z,69.60
2022-08-30T11:35:48.463Z,69.57
2022-08-30T11:36:56.480Z,69.60
2022-08-30T11:38:03.600Z,69.57
2022-08-30T11:39:12.341Z,69.46
2022-08-30T11:40:24.031Z,69.80
2022-08-30T11:41:38.278Z,70.21
2022-08-30T11:42:50.192Z,70.47
2022-08-30T11:43:58.591Z,70.49
2022-08-30T11:45:25.445Z,70.60
2022-08-30T11:46:33.860Z,70.78
2022-08-30T11:47:45.201Z,70.99
2022-08-30T11:49:14.211Z,71.03
2022-08-30T11:50:32.009Z,70.84
2022-08-30T11:52:27.632Z,70.52
2022-08-30T11:53:39.800Z,70.44
2022-08-30T11:55:20.911Z,70.50
2022-08-30T11:56:30.400Z,70.37
2022-08-30T11:57:58.951Z,70.56
2022-08-30T11:59:06.732Z,70.82
2022-08-30T12:00:36.361Z,70.96
2022-08-30T12:01:51.296Z,70.91
2022-08-30T12:03:04.188Z,70.99
2022-08-30T12:04:18.698Z,70.95
2022-08-30T12:05:44.071Z,70.99
2022-08-30T12:06:52.441Z,70.99
2022-08-30T12:08:02.952Z,70.85
2022-08-30T12:09:12.981Z,70.75
2022-08-30T12:10:28.123Z,70.68
2022-08-30T12:11:35.492Z,70.84
2022-08-30T12:12:49.371Z,71.02
2022-08-30T12:13:59.777Z,71.33
2022-08-30T12:15:07.812Z,71.64
2022-08-30T12:16:22.139Z,71.77
2022-08-30T12:18:15.279Z,71.71
2022-08-30T12:19:23.056Z,71.92
2022-08-30T12:20:47.357Z,72.29
2022-08-30T12:21:58.258Z,72.21
2022-08-30T12:23:31.337Z,72.08
2022-08-30T12:24:41.485Z,71.75
2022-08-30T12:25:48.566Z,71.48
2022-08-30T12:26:55.736Z,71.44
2022-08-30T12:28:31.644Z,71.18
2022-08-30T12:29:39.455Z,71.32
2022-08-30T12:30:48.577Z,71.25
2022-08-30T12:31:59.330Z,71.28
2022-08-30T12:33:11.613Z,71.39
2022-08-30T12:34:30.938Z,71.55
2022-08-30T12:35:38.844Z,71.67
2022-08-30T12:37:10.324Z,71.61
2022-08-30T12:38:28.041Z,71.76
2022-08-30T12:39:38.486Z,71.71
2022-08-30T12:40:54.923Z,71.85
2022-08-30T12:42:17.953Z,71.56
2022-08-30T12:43:28.557Z,71.49
2022-08-30T12:44:50.157Z,71.38
2022-08-30T12:46:07.200Z,71.51
2022-08-30T12:47:15.945Z,71.54
2022-08-30T12:48:24.242Z,71.61
2022-08-30T12:49:36.508Z,71.72
2022-08-30T12:50:54.327Z,71.92
2022-08-30T12:52:24.215Z,72.30
2022-08-30T12:53:33.349Z,72.42
2022-08-30T12:54:41.412Z,72.67
2022-08-30T12:56:01.348Z,72.61
2022-08-30T12:57:25.383Z,72.27
2022-08-30T12:58:47.535Z,71.99
2022-08-30T13:00:02.189Z,71.86
2022-08-30T13:01:31.791Z,71.75
2022-08-30T13:02:54.253Z,71.67
2022-08-30T13:04:05.676Z,71.56
2022-08-30T13:05:47.973Z,71.78
2022-08-30T13:06:59.075Z,71.92
2022-08-30T13:08:23.165Z,72.10
2022-08-30T13:09:38.478Z,72.35
2022-08-30T13:11:05.779Z,72.52
2022-08-30T13:12:27.948Z,72.46
2022-08-30T13:13:44.261Z,72.45
2022-08-30T13:14:55.285Z,72.12
2022-08-30T13:16:29.260Z,71.96
2022-08-30T13:17:38.166Z,71.87
2022-08-30T13:19:10.405Z,71.98
2022-08-30T13:20:18.805Z,71.92
2022-08-30T13:21:34.773Z,71.91
2022-08-30T13:22:44.669Z,71.98
2022-08-30T13:24:02.485Z,72.18
2022-08-30T13:25:12.477Z,72.20
2022-08-30T13:26:24.227Z,72.42
2022-08-30T13:27:36.991Z,72.25
2022-08-30T13:28:50.456Z,72.17
2022-08-30T13:30:00.681Z,72.07
2022-08-30T13:31:10.029Z,72.05
2022-08-30T13:32:18.307Z,71.98
2022-08-30T13:33:27.469Z,71.91
2022-08-30T13:34:37.308Z,71.94
2022-08-30T13:35:45.832Z,71.93
2022-08-30T13:36:59.056Z,72.12
2022-08-30T13:38:07.562Z,72.42
2022-08-30T13:39:15.604Z,72.57
2022-08-30T13:40:24.211Z,72.51
2022-08-30T13:41:34.768Z,72.54
2022-08-30T13:42:45.035Z,72.26
2022-08-30T13:44:12.127Z,72.09
2022-08-30T13:46:54.669Z,71.61
2022-08-30T13:48:05.355Z,71.40
2022-08-30T13:49:44.236Z,71.07
2022-08-30T13:50:57.122Z,70.34
2022-08-30T13:52:19.700Z,70.04
2022-08-30T13:54:58.810Z,68.71
2022-08-30T13:56:08.237Z,67.97
2022-08-30T13:58:52.917Z,66.29
2022-08-30T14:00:00.937Z,65.77
2022-08-30T14:01:09.436Z,65.14
2022-08-30T14:02:18.163Z,64.41
2022-08-30T14:03:26.513Z,63.88
2022-08-30T14:04:34.153Z,63.17
2022-08-30T14:05:51.571Z,62.87
2022-08-30T14:07:13.883Z,62.97
2022-08-30T14:08:47.736Z,63.43
2022-08-30T14:10:30.597Z,63.53
2022-08-30T14:11:27.665Z,62.90
2022-08-30T14:14:32.372Z,60.18
2022-08-30T14:15:32.059Z,58.97
2022-08-30T14:16:41.915Z,58.08
2022-08-30T14:17:49.675Z,57.49
2022-08-30T14:18:59.069Z,56.77
2022-08-30T14:20:08.858Z,56.19
2022-08-30T14:21:16.710Z,55.66
2022-08-30T14:22:25.118Z,54.89
2022-08-30T14:23:33.204Z,54.08
2022-08-30T14:24:41.149Z,53.64
2022-08-30T14:25:49.355Z,53.24
2022-08-30T14:26:58.730Z,52.51
2022-08-30T14:28:06.437Z,52.03
2022-08-30T14:29:14.373Z,51.36
2022-08-30T14:30:21.949Z,50.64
2022-08-30T14:31:29.046Z,50.25
2022-08-30T14:32:38.191Z,50.06
2022-08-30T14:33:45.770Z,49.77
2022-08-30T14:34:53.618Z,48.66
2022-08-30T14:36:02.738Z,48.68
2022-08-30T14:37:11.503Z,48.48
2022-08-30T14:38:22.129Z,47.87
2022-08-30T14:39:29.455Z,47.15
2022-08-30T14:40:38.179Z,47.06
2022-08-30T14:41:52.321Z,46.65
2022-08-30T14:43:01.221Z,46.51
2022-08-30T14:44:10.391Z,46.05
2022-08-30T14:45:18.390Z,45.99
2022-08-30T14:46:27.981Z,45.57
2022-08-30T14:47:36.111Z,44.77
2022-08-30T14:48:44.018Z,44.82
2022-08-30T14:49:52.811Z,44.56
2022-08-30T14:51:00.891Z,44.47
2022-08-30T14:52:09.473Z,44.09
2022-08-30T14:53:16.941Z,43.67
2022-08-30T14:54:26.181Z,43.43
2022-08-30T14:55:34.571Z,42.96
2022-08-30T14:56:43.104Z,42.70
2022-08-30T14:57:53.449Z,42.44
2022-08-30T14:59:04.731Z,41.94
2022-08-30T15:00:13.882Z,41.98
2022-08-30T15:01:21.491Z,41.07
2022-08-30T15:02:28.582Z,40.72
2022-08-30T15:03:38.082Z,40.67
2022-08-30T15:04:46.265Z,40.70
2022-08-30T15:05:57.736Z,40.17
2022-08-30T15:07:06.459Z,39.81
2022-08-30T15:08:17.419Z,39.70
2022-08-30T15:09:25.754Z,40.19
2022-08-30T15:10:32.956Z,39.98
2022-08-30T15:11:40.555Z,39.76
2022-08-30T15:12:53.795Z,38.97
2022-08-30T15:14:02.104Z,38.56
2022-08-30T15:15:11.507Z,38.45
2022-08-30T15:16:23.332Z,38.76
2022-08-30T15:17:32.601Z,39.03
2022-08-30T15:18:41.775Z,38.86
2022-08-30T15:19:50.544Z,38.91
2022-08-30T15:20:58.384Z,38.38
2022-08-30T15:22:08.057Z,38.14
2022-08-30T15:23:16.858Z,38.07
2022-08-30T15:24:29.715Z,37.53
2022-08-30T15:25:38.080Z,37.27
2022-08-30T15:26:51.019Z,37.48
2022-08-30T15:27:59.421Z,37.27
2022-08-30T15:29:09.410Z,37.30
2022-08-30T15:30:16.587Z,37.18
2022-08-30T15:31:32.296Z,36.79
2022-08-30T15:32:39.552Z,36.71